sensor_id;sensor_type;location;lat;lon;timestamp;P1;durP1;ratioP1;P2;durP2;ratioP2
28862;SDS011;15994;51.796;13.006;2023-11-22T00:01:06;17.88;;;9.02;;
28862;SDS011;15994;51.796;13.006;2023-11-22T00:03:33;17.08;;;9.15;;
28862;SDS011;15994;51.796;13.006;2023-11-22T00:06:00;16.02;;;8.80;;
28862;SDS011;15994;51.796;13.006;2023-11-22T00:08:27;16.02;;;9.40;;
28862;SDS011;15994;51.796;13.006;2023-11-22T00:10:55;15.52;;;9.45;;
28862;SDS011;15994;51.796;13.006;2023-11-22T00:13:22;16.05;;;8.77;;
28862;SDS011;15994;51.796;13.006;2023-11-22T00:15:49;17.33;;;8.88;;
28862;SDS011;15994;51.796;13.006;2023-11-22T00:18:16;15.90;;;9.45;;
28862;SDS011;15994;51.796;13.006;2023-11-22T00:20:43;19.10;;;9.25;;
28862;SDS011;15994;51.796;13.006;2023-11-22T00:23:12;14.52;;;8.75;;
28862;SDS011;15994;51.796;13.006;2023-11-22T00:25:39;19.35;;;9.45;;
28862;SDS011;15994;51.796;13.006;2023-11-22T00:28:06;15.32;;;9.00;;
28862;SDS011;15994;51.796;13.006;2023-11-22T00:30:33;13.68;;;8.73;;
28862;SDS011;15994;51.796;13.006;2023-11-22T00:33:00;19.63;;;9.52;;
28862;SDS011;15994;51.796;13.006;2023-11-22T00:35:27;18.08;;;9.63;;
28862;SDS011;15994;51.796;13.006;2023-11-22T00:37:54;15.20;;;8.35;;
28862;SDS011;15994;51.796;13.006;2023-11-22T00:40:23;14.10;;;8.70;;
28862;SDS011;15994;51.796;13.006;2023-11-22T00:42:50;16.38;;;8.77;;
28862;SDS011;15994;51.796;13.006;2023-11-22T00:45:17;14.68;;;8.90;;
28862;SDS011;15994;51.796;13.006;2023-11-22T00:47:44;15.90;;;9.50;;
28862;SDS011;15994;51.796;13.006;2023-11-22T00:50:11;16.55;;;9.30;;
28862;SDS011;15994;51.796;13.006;2023-11-22T00:52:38;17.50;;;9.38;;
28862;SDS011;15994;51.796;13.006;2023-11-22T00:55:09;15.52;;;8.63;;
28862;SDS011;15994;51.796;13.006;2023-11-22T00:57:36;17.52;;;8.90;;
28862;SDS011;15994;51.796;13.006;2023-11-22T01:00:04;14.82;;;8.52;;
28862;SDS011;15994;51.796;13.006;2023-11-22T01:02:32;17.27;;;8.57;;
28862;SDS011;15994;51.796;13.006;2023-11-22T01:05:01;16.42;;;9.40;;
28862;SDS011;15994;51.796;13.006;2023-11-22T01:07:28;15.23;;;8.95;;
28862;SDS011;15994;51.796;13.006;2023-11-22T01:09:55;16.85;;;9.15;;
28862;SDS011;15994;51.796;13.006;2023-11-22T01:12:22;14.80;;;9.05;;
28862;SDS011;15994;51.796;13.006;2023-11-22T01:14:49;16.67;;;8.88;;
28862;SDS011;15994;51.796;13.006;2023-11-22T01:17:16;16.67;;;9.23;;
28862;SDS011;15994;51.796;13.006;2023-11-22T01:19:43;14.90;;;8.40;;
28862;SDS011;15994;51.796;13.006;2023-11-22T01:22:10;15.63;;;8.90;;
28862;SDS011;15994;51.796;13.006;2023-11-22T01:24:37;14.98;;;8.95;;
28862;SDS011;15994;51.796;13.006;2023-11-22T01:27:04;15.23;;;9.00;;
28862;SDS011;15994;51.796;13.006;2023-11-22T01:29:31;15.60;;;9.00;;
28862;SDS011;15994;51.796;13.006;2023-11-22T01:31:59;15.68;;;8.93;;
28862;SDS011;15994;51.796;13.006;2023-11-22T01:34:27;15.15;;;8.68;;
28862;SDS011;15994;51.796;13.006;2023-11-22T01:36:54;14.45;;;8.23;;
28862;SDS011;15994;51.796;13.006;2023-11-22T01:39:21;15.23;;;8.60;;
28862;SDS011;15994;51.796;13.006;2023-11-22T01:41:48;14.82;;;8.50;;
28862;SDS011;15994;51.796;13.006;2023-11-22T01:44:15;15.30;;;8.85;;
28862;SDS011;15994;51.796;13.006;2023-11-22T01:46:43;14.85;;;8.10;;
28862;SDS011;15994;51.796;13.006;2023-11-22T01:49:10;14.45;;;8.07;;
28862;SDS011;15994;51.796;13.006;2023-11-22T01:51:37;12.55;;;7.60;;
28862;SDS011;15994;51.796;13.006;2023-11-22T01:54:04;13.93;;;7.90;;
28862;SDS011;15994;51.796;13.006;2023-11-22T01:56:33;14.98;;;8.75;;
28862;SDS011;15994;51.796;13.006;2023-11-22T01:59:02;13.65;;;7.97;;
28862;SDS011;15994;51.796;13.006;2023-11-22T02:01:29;12.45;;;7.47;;
28862;SDS011;15994;51.796;13.006;2023-11-22T02:03:56;13.05;;;7.28;;
28862;SDS011;15994;51.796;13.006;2023-11-22T02:06:23;13.13;;;7.85;;
28862;SDS011;15994;51.796;13.006;2023-11-22T02:08:50;14.75;;;8.00;;
28862;SDS011;15994;51.796;13.006;2023-11-22T02:11:18;14.02;;;7.78;;
28862;SDS011;15994;51.796;13.006;2023-11-22T02:13:46;14.60;;;7.70;;
28862;SDS011;15994;51.796;13.006;2023-11-22T02:16:14;13.48;;;7.75;;
28862;SDS011;15994;51.796;13.006;2023-11-22T02:18:42;14.60;;;7.75;;
28862;SDS011;15994;51.796;13.006;2023-11-22T02:21:10;14.20;;;7.53;;
28862;SDS011;15994;51.796;13.006;2023-11-22T02:23:37;14.32;;;7.63;;
28862;SDS011;15994;51.796;13.006;2023-11-22T02:28:59;14.13;;;7.22;;
28862;SDS011;15994;51.796;13.006;2023-11-22T02:31:26;15.25;;;7.43;;
28862;SDS011;15994;51.796;13.006;2023-11-22T02:33:53;13.00;;;7.70;;
28862;SDS011;15994;51.796;13.006;2023-11-22T02:36:22;12.68;;;6.75;;
28862;SDS011;15994;51.796;13.006;2023-11-22T02:38:49;12.15;;;6.25;;
28862;SDS011;15994;51.796;13.006;2023-11-22T02:41:16;11.15;;;6.72;;
28862;SDS011;15994;51.796;13.006;2023-11-22T02:43:43;11.55;;;7.32;;
28862;SDS011;15994;51.796;13.006;2023-11-22T02:46:11;14.18;;;7.03;;
28862;SDS011;15994;51.796;13.006;2023-11-22T02:48:39;11.65;;;7.25;;
28862;SDS011;15994;51.796;13.006;2023-11-22T02:51:05;12.90;;;7.30;;
28862;SDS011;15994;51.796;13.006;2023-11-22T02:53:32;11.65;;;6.60;;
28862;SDS011;15994;51.796;13.006;2023-11-22T02:55:59;12.60;;;6.85;;
28862;SDS011;15994;51.796;13.006;2023-11-22T02:58:29;13.85;;;7.13;;
28862;SDS011;15994;51.796;13.006;2023-11-22T03:00:56;13.82;;;7.20;;
28862;SDS011;15994;51.796;13.006;2023-11-22T03:03:23;12.77;;;6.85;;
28862;SDS011;15994;51.796;13.006;2023-11-22T03:05:50;13.60;;;7.20;;
28862;SDS011;15994;51.796;13.006;2023-11-22T03:08:17;14.30;;;7.57;;
28862;SDS011;15994;51.796;13.006;2023-11-22T03:10:44;12.75;;;7.60;;
28862;SDS011;15994;51.796;13.006;2023-11-22T03:13:12;14.75;;;7.07;;
28862;SDS011;15994;51.796;13.006;2023-11-22T03:15:39;13.82;;;7.40;;
28862;SDS011;15994;51.796;13.006;2023-11-22T03:18:07;12.95;;;7.60;;
28862;SDS011;15994;51.796;13.006;2023-11-22T03:20:36;13.15;;;7.70;;
28862;SDS011;15994;51.796;13.006;2023-11-22T03:23:03;14.65;;;7.88;;
28862;SDS011;15994;51.796;13.006;2023-11-22T03:25:30;14.32;;;7.38;;
28862;SDS011;15994;51.796;13.006;2023-11-22T03:27:57;14.18;;;7.40;;
28862;SDS011;15994;51.796;13.006;2023-11-22T03:30:24;12.73;;;7.63;;
28862;SDS011;15994;51.796;13.006;2023-11-22T03:32:51;13.30;;;7.07;;
28862;SDS011;15994;51.796;13.006;2023-11-22T03:35:19;11.25;;;7.05;;
28862;SDS011;15994;51.796;13.006;2023-11-22T03:37:46;12.95;;;6.57;;
28862;SDS011;15994;51.796;13.006;2023-11-22T03:40:13;12.88;;;7.10;;
28862;SDS011;15994;51.796;13.006;2023-11-22T03:42:40;14.27;;;7.85;;
28862;SDS011;15994;51.796;13.006;2023-11-22T03:45:06;12.68;;;7.13;;
28862;SDS011;15994;51.796;13.006;2023-11-22T03:47:33;15.13;;;8.35;;
28862;SDS011;15994;51.796;13.006;2023-11-22T03:50:02;15.77;;;7.65;;
28862;SDS011;15994;51.796;13.006;2023-11-22T03:52:30;15.05;;;7.55;;
28862;SDS011;15994;51.796;13.006;2023-11-22T03:54:57;13.80;;;7.72;;
28862;SDS011;15994;51.796;13.006;2023-11-22T03:57:24;14.35;;;7.80;;
28862;SDS011;15994;51.796;13.006;2023-11-22T03:59:51;17.05;;;8.95;;
28862;SDS011;15994;51.796;13.006;2023-11-22T04:02:18;17.67;;;9.77;;
28862;SDS011;15994;51.796;13.006;2023-11-22T04:04:45;19.83;;;10.43;;
28862;SDS011;15994;51.796;13.006;2023-11-22T04:07:12;17.90;;;9.20;;
28862;SDS011;15994;51.796;13.006;2023-11-22T04:09:39;16.45;;;9.55;;
28862;SDS011;15994;51.796;13.006;2023-11-22T04:12:06;14.30;;;8.63;;
28862;SDS011;15994;51.796;13.006;2023-11-22T04:14:33;13.13;;;7.78;;
28862;SDS011;15994;51.796;13.006;2023-11-22T04:17:00;15.82;;;7.53;;
28862;SDS011;15994;51.796;13.006;2023-11-22T04:19:27;14.00;;;7.80;;
28862;SDS011;15994;51.796;13.006;2023-11-22T04:21:54;12.70;;;7.63;;
28862;SDS011;15994;51.796;13.006;2023-11-22T04:24:21;14.57;;;7.60;;
28862;SDS011;15994;51.796;13.006;2023-11-22T04:26:48;16.50;;;8.73;;
28862;SDS011;15994;51.796;13.006;2023-11-22T04:29:15;14.50;;;7.35;;
28862;SDS011;15994;51.796;13.006;2023-11-22T04:31:42;12.70;;;7.45;;
28862;SDS011;15994;51.796;13.006;2023-11-22T04:34:09;16.20;;;8.07;;
28862;SDS011;15994;51.796;13.006;2023-11-22T04:36:36;15.85;;;7.85;;
28862;SDS011;15994;51.796;13.006;2023-11-22T04:39:03;15.45;;;8.35;;
28862;SDS011;15994;51.796;13.006;2023-11-22T04:41:32;14.73;;;7.43;;
28862;SDS011;15994;51.796;13.006;2023-11-22T04:43:59;13.77;;;7.30;;
28862;SDS011;15994;51.796;13.006;2023-11-22T04:46:26;13.70;;;7.65;;
28862;SDS011;15994;51.796;13.006;2023-11-22T04:48:53;15.50;;;8.23;;
28862;SDS011;15994;51.796;13.006;2023-11-22T04:51:21;16.75;;;7.90;;
28862;SDS011;15994;51.796;13.006;2023-11-22T04:53:49;14.18;;;7.57;;
28862;SDS011;15994;51.796;13.006;2023-11-22T04:56:16;14.25;;;7.28;;
28862;SDS011;15994;51.796;13.006;2023-11-22T04:58:43;11.85;;;6.82;;
28862;SDS011;15994;51.796;13.006;2023-11-22T05:01:10;14.82;;;7.72;;
28862;SDS011;15994;51.796;13.006;2023-11-22T05:03:37;12.85;;;7.40;;
28862;SDS011;15994;51.796;13.006;2023-11-22T05:06:04;14.05;;;7.45;;
28862;SDS011;15994;51.796;13.006;2023-11-22T05:08:32;13.57;;;7.63;;
28862;SDS011;15994;51.796;13.006;2023-11-22T05:10:59;15.82;;;8.35;;
28862;SDS011;15994;51.796;13.006;2023-11-22T05:13:27;13.77;;;7.97;;
28862;SDS011;15994;51.796;13.006;2023-11-22T05:15:54;15.02;;;8.68;;
28862;SDS011;15994;51.796;13.006;2023-11-22T05:18:21;18.75;;;7.50;;
28862;SDS011;15994;51.796;13.006;2023-11-22T05:20:48;12.30;;;7.22;;
28862;SDS011;15994;51.796;13.006;2023-11-22T05:23:15;15.18;;;7.75;;
28862;SDS011;15994;51.796;13.006;2023-11-22T05:25:43;14.30;;;7.30;;
28862;SDS011;15994;51.796;13.006;2023-11-22T05:28:10;16.48;;;7.63;;
28862;SDS011;15994;51.796;13.006;2023-11-22T05:30:37;14.73;;;7.40;;
28862;SDS011;15994;51.796;13.006;2023-11-22T05:33:04;13.65;;;7.65;;
28862;SDS011;15994;51.796;13.006;2023-11-22T05:35:31;11.93;;;7.47;;
28862;SDS011;15994;51.796;13.006;2023-11-22T05:37:58;14.02;;;8.20;;
28862;SDS011;15994;51.796;13.006;2023-11-22T05:40:25;14.02;;;7.82;;
28862;SDS011;15994;51.796;13.006;2023-11-22T05:42:52;13.48;;;7.32;;
28862;SDS011;15994;51.796;13.006;2023-11-22T05:45:19;16.20;;;8.40;;
28862;SDS011;15994;51.796;13.006;2023-11-22T05:47:46;16.00;;;8.73;;
28862;SDS011;15994;51.796;13.006;2023-11-22T05:50:13;18.20;;;8.85;;
28862;SDS011;15994;51.796;13.006;2023-11-22T05:52:40;15.18;;;8.27;;
28862;SDS011;15994;51.796;13.006;2023-11-22T05:55:07;16.83;;;8.27;;
28862;SDS011;15994;51.796;13.006;2023-11-22T05:57:34;15.40;;;7.65;;
28862;SDS011;15994;51.796;13.006;2023-11-22T06:00:02;13.82;;;7.32;;
28862;SDS011;15994;51.796;13.006;2023-11-22T06:02:41;13.98;;;7.57;;
28862;SDS011;15994;51.796;13.006;2023-11-22T06:05:08;13.23;;;7.63;;
28862;SDS011;15994;51.796;13.006;2023-11-22T06:07:36;13.35;;;7.65;;
28862;SDS011;15994;51.796;13.006;2023-11-22T06:10:03;16.48;;;8.27;;
28862;SDS011;15994;51.796;13.006;2023-11-22T06:12:30;13.32;;;6.95;;
28862;SDS011;15994;51.796;13.006;2023-11-22T06:14:57;12.38;;;7.15;;
28862;SDS011;15994;51.796;13.006;2023-11-22T06:17:24;11.88;;;7.18;;
28862;SDS011;15994;51.796;13.006;2023-11-22T06:19:52;13.35;;;7.15;;
28862;SDS011;15994;51.796;13.006;2023-11-22T06:22:19;13.52;;;7.25;;
28862;SDS011;15994;51.796;13.006;2023-11-22T06:24:46;15.77;;;7.10;;
28862;SDS011;15994;51.796;13.006;2023-11-22T06:27:13;13.60;;;7.40;;
28862;SDS011;15994;51.796;13.006;2023-11-22T06:29:41;13.55;;;6.80;;
28862;SDS011;15994;51.796;13.006;2023-11-22T06:32:09;13.80;;;7.60;;
28862;SDS011;15994;51.796;13.006;2023-11-22T06:34:36;14.38;;;7.43;;
28862;SDS011;15994;51.796;13.006;2023-11-22T06:37:03;13.43;;;7.15;;
28862;SDS011;15994;51.796;13.006;2023-11-22T06:39:33;13.60;;;7.43;;
28862;SDS011;15994;51.796;13.006;2023-11-22T06:42:03;14.73;;;7.82;;
28862;SDS011;15994;51.796;13.006;2023-11-22T06:44:31;12.20;;;7.47;;
28862;SDS011;15994;51.796;13.006;2023-11-22T06:46:59;12.30;;;6.95;;
28862;SDS011;15994;51.796;13.006;2023-11-22T06:49:26;13.30;;;7.47;;
28862;SDS011;15994;51.796;13.006;2023-11-22T06:51:54;14.98;;;7.53;;
28862;SDS011;15994;51.796;13.006;2023-11-22T06:54:21;14.82;;;7.68;;
28862;SDS011;15994;51.796;13.006;2023-11-22T06:56:48;15.85;;;7.85;;
28862;SDS011;15994;51.796;13.006;2023-11-22T06:59:16;14.88;;;7.80;;
28862;SDS011;15994;51.796;13.006;2023-11-22T07:01:43;14.65;;;7.57;;
28862;SDS011;15994;51.796;13.006;2023-11-22T07:04:11;15.82;;;8.32;;
28862;SDS011;15994;51.796;13.006;2023-11-22T07:06:38;16.83;;;7.90;;
28862;SDS011;15994;51.796;13.006;2023-11-22T07:09:05;16.92;;;8.48;;
28862;SDS011;15994;51.796;13.006;2023-11-22T07:11:34;16.80;;;7.72;;
28862;SDS011;15994;51.796;13.006;2023-11-22T07:14:02;15.23;;;8.20;;
28862;SDS011;15994;51.796;13.006;2023-11-22T07:16:30;14.68;;;7.80;;
28862;SDS011;15994;51.796;13.006;2023-11-22T07:18:57;13.75;;;7.90;;
28862;SDS011;15994;51.796;13.006;2023-11-22T07:21:25;14.95;;;8.15;;
28862;SDS011;15994;51.796;13.006;2023-11-22T07:23:52;16.17;;;7.63;;
28862;SDS011;15994;51.796;13.006;2023-11-22T07:26:19;16.23;;;8.45;;
28862;SDS011;15994;51.796;13.006;2023-11-22T07:28:46;13.60;;;7.90;;
28862;SDS011;15994;51.796;13.006;2023-11-22T07:31:13;18.80;;;8.98;;
28862;SDS011;15994;51.796;13.006;2023-11-22T07:33:41;14.85;;;8.30;;
28862;SDS011;15994;51.796;13.006;2023-11-22T07:36:08;15.52;;;8.18;;
28862;SDS011;15994;51.796;13.006;2023-11-22T07:38:39;15.15;;;8.57;;
28862;SDS011;15994;51.796;13.006;2023-11-22T07:41:06;13.00;;;7.45;;
28862;SDS011;15994;51.796;13.006;2023-11-22T07:43:33;15.68;;;7.63;;
28862;SDS011;15994;51.796;13.006;2023-11-22T07:46:04;15.10;;;8.35;;
28862;SDS011;15994;51.796;13.006;2023-11-22T07:48:33;14.55;;;7.78;;
28862;SDS011;15994;51.796;13.006;2023-11-22T07:51:02;12.57;;;6.80;;
28862;SDS011;15994;51.796;13.006;2023-11-22T07:53:30;12.02;;;7.05;;
28862;SDS011;15994;51.796;13.006;2023-11-22T07:55:59;14.27;;;7.22;;
28862;SDS011;15994;51.796;13.006;2023-11-22T07:58:30;12.05;;;6.90;;
28862;SDS011;15994;51.796;13.006;2023-11-22T08:01:00;12.82;;;7.10;;
28862;SDS011;15994;51.796;13.006;2023-11-22T08:03:30;13.25;;;6.90;;
28862;SDS011;15994;51.796;13.006;2023-11-22T08:05:57;11.63;;;6.97;;
28862;SDS011;15994;51.796;13.006;2023-11-22T08:08:24;11.98;;;7.05;;
28862;SDS011;15994;51.796;13.006;2023-11-22T08:10:52;14.98;;;7.28;;
28862;SDS011;15994;51.796;13.006;2023-11-22T08:13:21;13.98;;;7.28;;
28862;SDS011;15994;51.796;13.006;2023-11-22T08:15:49;12.65;;;6.78;;
28862;SDS011;15994;51.796;13.006;2023-11-22T08:18:18;12.38;;;7.00;;
28862;SDS011;15994;51.796;13.006;2023-11-22T08:20:45;13.15;;;7.60;;
28862;SDS011;15994;51.796;13.006;2023-11-22T08:23:12;15.13;;;7.43;;
28862;SDS011;15994;51.796;13.006;2023-11-22T08:25:40;12.82;;;7.22;;
28862;SDS011;15994;51.796;13.006;2023-11-22T08:28:06;13.15;;;7.47;;
28862;SDS011;15994;51.796;13.006;2023-11-22T08:30:34;13.07;;;6.82;;
28862;SDS011;15994;51.796;13.006;2023-11-22T08:33:02;12.40;;;7.28;;
28862;SDS011;15994;51.796;13.006;2023-11-22T08:35:29;15.85;;;7.50;;
28862;SDS011;15994;51.796;13.006;2023-11-22T08:37:56;13.40;;;7.57;;
28862;SDS011;15994;51.796;13.006;2023-11-22T08:40:23;12.80;;;7.07;;
28862;SDS011;15994;51.796;13.006;2023-11-22T08:42:50;13.63;;;8.00;;
28862;SDS011;15994;51.796;13.006;2023-11-22T08:45:17;14.88;;;8.45;;
28862;SDS011;15994;51.796;13.006;2023-11-22T08:47:44;13.55;;;7.93;;
28862;SDS011;15994;51.796;13.006;2023-11-22T08:50:12;14.45;;;7.63;;
28862;SDS011;15994;51.796;13.006;2023-11-22T08:52:40;13.85;;;7.88;;
28862;SDS011;15994;51.796;13.006;2023-11-22T08:55:09;13.18;;;7.15;;
28862;SDS011;15994;51.796;13.006;2023-11-22T08:57:37;14.00;;;7.55;;
28862;SDS011;15994;51.796;13.006;2023-11-22T09:00:05;13.80;;;8.10;;
28862;SDS011;15994;51.796;13.006;2023-11-22T09:02:33;15.27;;;8.57;;
28862;SDS011;15994;51.796;13.006;2023-11-22T09:05:01;12.93;;;7.30;;
28862;SDS011;15994;51.796;13.006;2023-11-22T09:07:43;14.95;;;7.82;;
28862;SDS011;15994;51.796;13.006;2023-11-22T09:10:11;16.63;;;7.28;;
28862;SDS011;15994;51.796;13.006;2023-11-22T09:12:39;11.88;;;6.97;;
28862;SDS011;15994;51.796;13.006;2023-11-22T09:15:10;13.13;;;7.45;;
28862;SDS011;15994;51.796;13.006;2023-11-22T09:17:38;12.85;;;7.28;;
28862;SDS011;15994;51.796;13.006;2023-11-22T09:20:17;14.55;;;7.90;;
28862;SDS011;15994;51.796;13.006;2023-11-22T09:22:45;12.23;;;7.88;;
28862;SDS011;15994;51.796;13.006;2023-11-22T09:25:16;13.27;;;7.75;;
28862;SDS011;15994;51.796;13.006;2023-11-22T09:27:44;13.95;;;8.27;;
28862;SDS011;15994;51.796;13.006;2023-11-22T09:30:15;14.75;;;7.93;;
28862;SDS011;15994;51.796;13.006;2023-11-22T09:33:07;14.15;;;8.13;;
28862;SDS011;15994;51.796;13.006;2023-11-22T09:35:35;14.75;;;7.47;;
28862;SDS011;15994;51.796;13.006;2023-11-22T09:38:09;13.38;;;8.20;;
28862;SDS011;15994;51.796;13.006;2023-11-22T09:40:46;16.98;;;8.73;;
28862;SDS011;15994;51.796;13.006;2023-11-22T09:43:14;15.32;;;8.68;;
28862;SDS011;15994;51.796;13.006;2023-11-22T09:45:42;14.77;;;8.40;;
28862;SDS011;15994;51.796;13.006;2023-11-22T09:48:19;14.27;;;7.85;;
28862;SDS011;15994;51.796;13.006;2023-11-22T09:50:57;13.00;;;7.95;;
28862;SDS011;15994;51.796;13.006;2023-11-22T09:55:54;12.52;;;7.75;;
28862;SDS011;15994;51.796;13.006;2023-11-22T09:58:21;15.15;;;8.32;;
28862;SDS011;15994;51.796;13.006;2023-11-22T10:00:50;14.00;;;7.85;;
28862;SDS011;15994;51.796;13.006;2023-11-22T10:03:18;15.85;;;8.88;;
28862;SDS011;15994;51.796;13.006;2023-11-22T10:05:45;16.17;;;9.07;;
28862;SDS011;15994;51.796;13.006;2023-11-22T10:08:12;14.93;;;8.65;;
28862;SDS011;15994;51.796;13.006;2023-11-22T10:10:42;14.45;;;8.63;;
28862;SDS011;15994;51.796;13.006;2023-11-22T10:13:13;13.88;;;8.05;;
28862;SDS011;15994;51.796;13.006;2023-11-22T10:15:40;13.50;;;8.23;;
28862;SDS011;15994;51.796;13.006;2023-11-22T10:18:07;14.88;;;7.95;;
28862;SDS011;15994;51.796;13.006;2023-11-22T10:20:37;16.75;;;9.05;;
28862;SDS011;15994;51.796;13.006;2023-11-22T10:23:08;15.88;;;8.10;;
28862;SDS011;15994;51.796;13.006;2023-11-22T10:25:36;14.00;;;8.10;;
28862;SDS011;15994;51.796;13.006;2023-11-22T10:28:03;13.50;;;8.13;;
28862;SDS011;15994;51.796;13.006;2023-11-22T10:30:30;13.90;;;7.97;;
28862;SDS011;15994;51.796;13.006;2023-11-22T10:32:57;14.52;;;7.53;;
28862;SDS011;15994;51.796;13.006;2023-11-22T10:35:24;13.00;;;7.72;;
28862;SDS011;15994;51.796;13.006;2023-11-22T10:37:52;15.65;;;8.38;;
28862;SDS011;15994;51.796;13.006;2023-11-22T10:40:20;12.80;;;7.88;;
28862;SDS011;15994;51.796;13.006;2023-11-22T10:42:47;14.88;;;7.50;;
28862;SDS011;15994;51.796;13.006;2023-11-22T10:45:17;15.23;;;8.57;;
28862;SDS011;15994;51.796;13.006;2023-11-22T10:47:44;18.45;;;8.52;;
28862;SDS011;15994;51.796;13.006;2023-11-22T10:50:12;12.98;;;7.45;;
28862;SDS011;15994;51.796;13.006;2023-11-22T10:52:40;13.52;;;7.32;;
28862;SDS011;15994;51.796;13.006;2023-11-22T10:55:15;22.58;;;11.75;;
28862;SDS011;15994;51.796;13.006;2023-11-22T10:57:45;17.52;;;8.10;;
28862;SDS011;15994;51.796;13.006;2023-11-22T11:00:14;12.32;;;7.45;;
28862;SDS011;15994;51.796;13.006;2023-11-22T11:02:44;13.70;;;8.13;;
28862;SDS011;15994;51.796;13.006;2023-11-22T11:05:16;13.05;;;7.70;;
28862;SDS011;15994;51.796;13.006;2023-11-22T11:07:48;13.68;;;7.75;;
28862;SDS011;15994;51.796;13.006;2023-11-22T11:10:17;12.25;;;7.28;;
28862;SDS011;15994;51.796;13.006;2023-11-22T11:12:44;12.93;;;7.60;;
28862;SDS011;15994;51.796;13.006;2023-11-22T11:15:11;13.93;;;7.80;;
28862;SDS011;15994;51.796;13.006;2023-11-22T11:17:44;12.68;;;7.43;;
28862;SDS011;15994;51.796;13.006;2023-11-22T11:20:18;13.18;;;7.68;;
28862;SDS011;15994;51.796;13.006;2023-11-22T11:25:17;14.00;;;7.80;;
28862;SDS011;15994;51.796;13.006;2023-11-22T11:27:45;13.43;;;7.30;;
28862;SDS011;15994;51.796;13.006;2023-11-22T11:40:40;12.57;;;7.40;;
28862;SDS011;15994;51.796;13.006;2023-11-22T11:43:08;13.85;;;7.40;;
28862;SDS011;15994;51.796;13.006;2023-11-22T11:45:38;12.20;;;7.57;;
28862;SDS011;15994;51.796;13.006;2023-11-22T11:48:10;11.90;;;6.82;;
28862;SDS011;15994;51.796;13.006;2023-11-22T11:50:37;15.55;;;7.45;;
28862;SDS011;15994;51.796;13.006;2023-11-22T11:53:04;12.48;;;7.43;;
28862;SDS011;15994;51.796;13.006;2023-11-22T11:55:31;12.38;;;7.43;;
28862;SDS011;15994;51.796;13.006;2023-11-22T11:58:05;12.70;;;6.93;;
28862;SDS011;15994;51.796;13.006;2023-11-22T12:00:34;11.23;;;7.10;;
28862;SDS011;15994;51.796;13.006;2023-11-22T12:03:03;12.48;;;7.03;;
28862;SDS011;15994;51.796;13.006;2023-11-22T12:05:30;13.35;;;7.57;;
28862;SDS011;15994;51.796;13.006;2023-11-22T12:07:57;11.57;;;6.88;;
28862;SDS011;15994;51.796;13.006;2023-11-22T12:10:29;12.23;;;6.80;;
28862;SDS011;15994;51.796;13.006;2023-11-22T12:12:56;14.32;;;7.75;;
28862;SDS011;15994;51.796;13.006;2023-11-22T12:15:25;12.93;;;7.32;;
28862;SDS011;15994;51.796;13.006;2023-11-22T12:17:52;12.02;;;7.13;;
28862;SDS011;15994;51.796;13.006;2023-11-22T12:20:27;12.95;;;7.22;;
28862;SDS011;15994;51.796;13.006;2023-11-22T12:22:58;11.63;;;7.18;;
28862;SDS011;15994;51.796;13.006;2023-11-22T12:25:26;13.07;;;7.32;;
28862;SDS011;15994;51.796;13.006;2023-11-22T12:27:54;12.93;;;7.68;;
28862;SDS011;15994;51.796;13.006;2023-11-22T12:30:28;12.13;;;7.38;;
28862;SDS011;15994;51.796;13.006;2023-11-22T12:32:55;11.57;;;7.30;;
28862;SDS011;15994;51.796;13.006;2023-11-22T12:35:22;14.32;;;8.52;;
28862;SDS011;15994;51.796;13.006;2023-11-22T12:37:49;16.67;;;8.07;;
28862;SDS011;15994;51.796;13.006;2023-11-22T12:40:22;14.07;;;7.53;;
28862;SDS011;15994;51.796;13.006;2023-11-22T12:42:52;11.85;;;7.03;;
28862;SDS011;15994;51.796;13.006;2023-11-22T12:45:26;12.23;;;7.03;;
28862;SDS011;15994;51.796;13.006;2023-11-22T12:47:54;11.57;;;6.82;;
28862;SDS011;15994;51.796;13.006;2023-11-22T12:50:33;12.10;;;7.47;;
28862;SDS011;15994;51.796;13.006;2023-11-22T12:53:09;14.80;;;7.25;;
28862;SDS011;15994;51.796;13.006;2023-11-22T12:55:44;11.85;;;7.45;;
28862;SDS011;15994;51.796;13.006;2023-11-22T12:58:13;13.43;;;7.10;;
28862;SDS011;15994;51.796;13.006;2023-11-22T13:00:41;11.57;;;7.28;;
28862;SDS011;15994;51.796;13.006;2023-11-22T13:03:08;11.40;;;6.90;;
28862;SDS011;15994;51.796;13.006;2023-11-22T13:05:39;11.68;;;7.70;;
28862;SDS011;15994;51.796;13.006;2023-11-22T13:08:07;12.00;;;7.28;;
28862;SDS011;15994;51.796;13.006;2023-11-22T13:10:36;12.25;;;7.25;;
28862;SDS011;15994;51.796;13.006;2023-11-22T13:13:03;13.20;;;7.65;;
28862;SDS011;15994;51.796;13.006;2023-11-22T13:15:33;13.57;;;7.30;;
28862;SDS011;15994;51.796;13.006;2023-11-22T13:18:00;11.90;;;7.18;;
28862;SDS011;15994;51.796;13.006;2023-11-22T13:20:31;13.30;;;7.38;;
28862;SDS011;15994;51.796;13.006;2023-11-22T13:23:01;11.63;;;6.95;;
28862;SDS011;15994;51.796;13.006;2023-11-22T13:28:21;11.00;;;6.43;;
28862;SDS011;15994;51.796;13.006;2023-11-22T13:30:50;11.02;;;6.53;;
28862;SDS011;15994;51.796;13.006;2023-11-22T13:33:17;12.30;;;6.63;;
28862;SDS011;15994;51.796;13.006;2023-11-22T13:35:52;9.90;;;6.43;;
28862;SDS011;15994;51.796;13.006;2023-11-22T13:38:19;10.77;;;6.50;;
28862;SDS011;15994;51.796;13.006;2023-11-22T13:40:46;10.73;;;6.57;;
28862;SDS011;15994;51.796;13.006;2023-11-22T13:43:13;10.68;;;6.75;;
28862;SDS011;15994;51.796;13.006;2023-11-22T13:45:42;13.15;;;7.50;;
28862;SDS011;15994;51.796;13.006;2023-11-22T13:48:22;12.40;;;7.68;;
28862;SDS011;15994;51.796;13.006;2023-11-22T13:50:53;13.32;;;8.18;;
28862;SDS011;15994;51.796;13.006;2023-11-22T13:53:20;13.93;;;8.63;;
28862;SDS011;15994;51.796;13.006;2023-11-22T13:55:49;14.55;;;8.25;;
28862;SDS011;15994;51.796;13.006;2023-11-22T13:58:18;14.38;;;8.23;;
28862;SDS011;15994;51.796;13.006;2023-11-22T14:00:45;14.60;;;8.52;;
28862;SDS011;15994;51.796;13.006;2023-11-22T14:03:17;15.98;;;9.18;;
28862;SDS011;15994;51.796;13.006;2023-11-22T14:05:48;15.38;;;8.98;;
28862;SDS011;15994;51.796;13.006;2023-11-22T14:08:15;17.50;;;9.18;;
28862;SDS011;15994;51.796;13.006;2023-11-22T14:10:42;15.57;;;8.63;;
28862;SDS011;15994;51.796;13.006;2023-11-22T14:13:09;15.82;;;8.32;;
28862;SDS011;15994;51.796;13.006;2023-11-22T14:15:38;13.95;;;8.02;;
28862;SDS011;15994;51.796;13.006;2023-11-22T14:18:07;14.75;;;8.80;;
28862;SDS011;15994;51.796;13.006;2023-11-22T14:20:34;13.20;;;8.00;;
28862;SDS011;15994;51.796;13.006;2023-11-22T14:23:02;15.07;;;8.38;;
28862;SDS011;15994;51.796;13.006;2023-11-22T14:25:32;15.75;;;8.75;;
28862;SDS011;15994;51.796;13.006;2023-11-22T14:27:59;15.27;;;8.90;;
28862;SDS011;15994;51.796;13.006;2023-11-22T14:33:21;14.25;;;8.50;;
28862;SDS011;15994;51.796;13.006;2023-11-22T14:35:48;15.07;;;8.50;;
28862;SDS011;15994;51.796;13.006;2023-11-22T14:38:15;15.30;;;8.40;;
28862;SDS011;15994;51.796;13.006;2023-11-22T14:40:43;16.30;;;9.15;;
28862;SDS011;15994;51.796;13.006;2023-11-22T14:43:10;17.02;;;9.07;;
28862;SDS011;15994;51.796;13.006;2023-11-22T14:45:43;15.88;;;8.85;;
28862;SDS011;15994;51.796;13.006;2023-11-22T14:48:10;15.98;;;9.57;;
28862;SDS011;15994;51.796;13.006;2023-11-22T14:50:39;17.75;;;9.60;;